Time;durP1;ratioP1;P1;durP2;ratioP2;P2;SDS_P1;SDS_P2;PMS_P1;PMS_P2;Temp;Humidity;BMP_temperature;BMP_pressure;BME280_temperature;BME280_humidity;BME280_pressure;Samples;Min_cycle;Max_cycle;Signal;HPM_P1;HPM_P2
2023/09/11 00:02:16;;;;;;;241.73;101.67;;;;;;;;;;5053773;28;20886;-45
2023/09/11 00:04:41;;;;;;;241.17;98.23;;;;;;;;;;5054434;28;20432;-46
2023/09/11 00:07:07;;;;;;;245.03;101.87;;;;;;;;;;5058960;28;20607;-46
2023/09/11 00:09:33;;;;;;;243.00;103.10;;;;;;;;;;5060302;28;20408;-46
2023/09/11 00:11:59;;;;;;;239.93;98.83;;;;;;;;;;5054684;28;20792;-46
2023/09/11 00:14:25;;;;;;;243.37;103.00;;;;;;;;;;5054153;28;20410;-46
2023/09/11 00:16:51;;;;;;;240.33;98.40;;;;;;;;;;5054187;28;20409;-47
2023/09/11 00:19:17;;;;;;;240.80;98.87;;;;;;;;;;5057133;28;20436;-47
2023/09/11 00:21:43;;;;;;;241.37;96.80;;;;;;;;;;5051710;28;20849;-46
2023/09/11 00:24:09;;;;;;;240.03;101.37;;;;;;;;;;5059867;28;20445;-46
2023/09/11 00:26:35;;;;;;;242.57;99.10;;;;;;;;;;5053924;28;20421;-45
2023/09/11 00:29:01;;;;;;;238.93;98.03;;;;;;;;;;5054967;28;20429;-46
2023/09/11 00:31:27;;;;;;;242.17;98.67;;;;;;;;;;5055875;28;20416;-48
2023/09/11 00:33:53;;;;;;;238.30;99.97;;;;;;;;;;5055256;28;20486;-46
2023/09/11 00:36:19;;;;;;;236.23;93.97;;;;;;;;;;5058617;28;20405;-47
2023/09/11 00:38:47;;;;;;;241.63;101.03;;;;;;;;;;5059624;28;20425;-47
2023/09/11 00:41:13;;;;;;;244.93;100.40;;;;;;;;;;5045393;28;20410;-48
2023/09/11 00:43:39;;;;;;;238.70;95.77;;;;;;;;;;5051294;28;20416;-46
2023/09/11 00:46:05;;;;;;;244.40;103.63;;;;;;;;;;5053630;28;20413;-46
2023/09/11 00:48:32;;;;;;;240.83;98.57;;;;;;;;;;5053557;28;20726;-46
2023/09/11 00:50:58;;;;;;;240.33;96.23;;;;;;;;;;5054279;28;20414;-47
2023/09/11 00:53:24;;;;;;;240.77;97.67;;;;;;;;;;5058952;28;20421;-48
2023/09/11 00:55:50;;;;;;;240.30;95.73;;;;;;;;;;5061328;28;20436;-47
2023/09/11 00:58:17;;;;;;;240.47;97.73;;;;;;;;;;5053065;28;20468;-45
2023/09/11 01:00:45;;;;;;;243.80;97.60;;;;;;;;;;5056119;28;20439;-46
2023/09/11 01:03:12;;;;;;;238.87;93.33;;;;;;;;;;5052884;28;20488;-45
2023/09/11 01:05:38;;;;;;;243.77;100.50;;;;;;;;;;5058979;28;20400;-45
2023/09/11 01:08:04;;;;;;;243.73;97.83;;;;;;;;;;5052086;28;20425;-46
2023/09/11 01:10:30;;;;;;;241.87;97.03;;;;;;;;;;5053200;28;20433;-46
2023/09/11 01:12:56;;;;;;;240.20;95.17;;;;;;;;;;5053206;28;20932;-46
2023/09/11 01:15:23;;;;;;;239.40;93.47;;;;;;;;;;5050189;28;20470;-46
2023/09/11 01:17:58;;;;;;;243.73;100.93;;;;;;;;;;5052757;28;20843;-46
2023/09/11 01:20:24;;;;;;;242.20;99.83;;;;;;;;;;5053085;28;20411;-46
2023/09/11 01:23:16;;;;;;;241.50;99.07;;;;;;;;;;5053048;28;20457;-46
2023/09/11 01:25:57;;;;;;;244.67;101.13;;;;;;;;;;5047921;28;20433;-46
2023/09/11 01:28:29;;;;;;;243.83;97.50;;;;;;;;;;5052661;28;20494;-46
2023/09/11 01:30:55;;;;;;;241.73;95.30;;;;;;;;;;5052932;28;20546;-47
2023/09/11 01:33:21;;;;;;;241.90;97.20;;;;;;;;;;5052859;28;20413;-47
2023/09/11 01:35:47;;;;;;;242.93;96.60;;;;;;;;;;5052539;28;20455;-45
2023/09/11 01:38:13;;;;;;;243.33;101.13;;;;;;;;;;5059272;28;20425;-46
2023/09/11 01:40:41;;;;;;;240.90;96.37;;;;;;;;;;5052679;28;20492;-47
2023/09/11 01:43:09;;;;;;;242.93;97.40;;;;;;;;;;5055426;28;20463;-46
2023/09/11 01:45:36;;;;;;;238.97;91.50;;;;;;;;;;5052609;28;20492;-46
2023/09/11 01:48:02;;;;;;;241.73;97.80;;;;;;;;;;5052190;28;20426;-46
2023/09/11 01:50:29;;;;;;;240.30;94.57;;;;;;;;;;5058879;28;20407;-46
2023/09/11 01:52:55;;;;;;;241.83;96.80;;;;;;;;;;5053352;28;20460;-47
2023/09/11 01:55:21;;;;;;;244.37;104.30;;;;;;;;;;5052277;28;20431;-45
2023/09/11 01:57:47;;;;;;;244.37;101.40;;;;;;;;;;5052031;28;20432;-46
2023/09/11 02:00:13;;;;;;;240.60;96.10;;;;;;;;;;5052306;28;20429;-46
2023/09/11 02:02:40;;;;;;;245.03;102.50;;;;;;;;;;5052052;28;20457;-46
2023/09/11 02:05:06;;;;;;;242.27;97.30;;;;;;;;;;5052300;28;20410;-45
2023/09/11 02:07:32;;;;;;;243.20;97.13;;;;;;;;;;5051067;28;20433;-46
2023/09/11 02:09:58;;;;;;;245.03;99.30;;;;;;;;;;5054824;28;20892;-46
2023/09/11 02:12:24;;;;;;;239.53;93.67;;;;;;;;;;5054539;28;20772;-46
2023/09/11 02:14:50;;;;;;;242.00;97.57;;;;;;;;;;5053815;28;20782;-46
2023/09/11 02:17:16;;;;;;;248.77;101.07;;;;;;;;;;5051578;28;20409;-46
2023/09/11 02:19:42;;;;;;;241.00;95.60;;;;;;;;;;5059557;28;20896;-48
2023/09/11 02:22:08;;;;;;;241.13;93.93;;;;;;;;;;5051977;28;20527;-46
2023/09/11 02:24:34;;;;;;;241.33;95.30;;;;;;;;;;5054438;28;20881;-47
2023/09/11 02:27:00;;;;;;;239.63;92.03;;;;;;;;;;5056059;28;21000;-46
2023/09/11 02:29:26;;;;;;;240.27;93.87;;;;;;;;;;5056130;28;20963;-46
2023/09/11 02:31:52;;;;;;;246.20;98.77;;;;;;;;;;5054386;28;20772;-45
2023/09/11 02:34:18;;;;;;;244.90;100.17;;;;;;;;;;5058046;28;20500;-46
2023/09/11 02:36:44;;;;;;;240.40;93.20;;;;;;;;;;5051766;28;20839;-46
2023/09/11 02:39:10;;;;;;;240.67;94.20;;;;;;;;;;5051507;28;20444;-46
2023/09/11 02:41:36;;;;;;;241.93;95.43;;;;;;;;;;5047507;28;20463;-46
2023/09/11 02:44:02;;;;;;;240.67;95.10;;;;;;;;;;5051686;28;20401;-45
2023/09/11 02:46:28;;;;;;;240.70;93.37;;;;;;;;;;5047705;28;20422;-45
2023/09/11 02:48:54;;;;;;;242.33;96.97;;;;;;;;;;5047640;28;20545;-45
2023/09/11 02:51:19;;;;;;;242.13;94.23;;;;;;;;;;5051671;28;20524;-46
2023/09/11 02:53:45;;;;;;;243.17;96.57;;;;;;;;;;5051362;28;20401;-46
2023/09/11 02:56:11;;;;;;;240.10;94.87;;;;;;;;;;5046226;28;20416;-46
2023/09/11 02:58:37;;;;;;;241.80;95.67;;;;;;;;;;5051191;28;20436;-48
2023/09/11 03:01:04;;;;;;;241.60;96.80;;;;;;;;;;5045363;28;20405;-46
2023/09/11 03:03:30;;;;;;;239.70;94.03;;;;;;;;;;5051450;28;20422;-46
2023/09/11 03:05:57;;;;;;;241.43;94.90;;;;;;;;;;5046444;28;20422;-46
2023/09/11 03:08:23;;;;;;;244.50;100.40;;;;;;;;;;5051153;28;20433;-46
2023/09/11 03:10:49;;;;;;;242.00;94.17;;;;;;;;;;5051109;28;20455;-45
2023/09/11 03:13:15;;;;;;;243.03;98.10;;;;;;;;;;5051503;28;20405;-45
2023/09/11 03:15:44;;;;;;;242.47;98.00;;;;;;;;;;5051192;28;20884;-46
2023/09/11 03:18:10;;;;;;;242.70;96.63;;;;;;;;;;5051052;28;20912;-45
2023/09/11 03:20:36;;;;;;;244.77;101.50;;;;;;;;;;5051298;28;20406;-45
2023/09/11 03:23:02;;;;;;;239.63;94.73;;;;;;;;;;5051130;28;20460;-46
2023/09/11 03:25:29;;;;;;;241.20;95.33;;;;;;;;;;5051001;28;20466;-45
2023/09/11 03:27:55;;;;;;;244.13;102.60;;;;;;;;;;5050879;28;20955;-46
2023/09/11 03:30:21;;;;;;;241.17;98.77;;;;;;;;;;5051147;28;20405;-45
2023/09/11 03:32:47;;;;;;;242.10;96.97;;;;;;;;;;5051209;28;20405;-46
2023/09/11 03:35:13;;;;;;;240.63;95.50;;;;;;;;;;5051331;28;20519;-46
2023/09/11 03:37:39;;;;;;;240.53;94.87;;;;;;;;;;5050962;28;20491;-46
2023/09/11 03:40:09;;;;;;;240.77;94.63;;;;;;;;;;5051091;28;20409;-46
2023/09/11 03:42:35;;;;;;;239.90;92.67;;;;;;;;;;5049259;28;20472;-47
2023/09/11 03:45:01;;;;;;;238.70;94.10;;;;;;;;;;5050954;28;20409;-46
2023/09/11 03:47:27;;;;;;;241.87;96.40;;;;;;;;;;5047293;28;20925;-45
2023/09/11 03:49:53;;;;;;;242.33;95.03;;;;;;;;;;5049646;28;20404;-46
2023/09/11 03:52:19;;;;;;;245.60;102.13;;;;;;;;;;5050929;28;20455;-45
2023/09/11 03:54:45;;;;;;;242.33;96.33;;;;;;;;;;5050957;28;20413;-46
2023/09/11 03:57:11;;;;;;;245.33;96.30;;;;;;;;;;5049027;28;20420;-46
2023/09/11 03:59:37;;;;;;;242.17;99.53;;;;;;;;;;5052435;28;20405;-46
2023/09/11 04:02:03;;;;;;;242.23;101.10;;;;;;;;;;5054643;28;20976;-45
2023/09/11 04:04:29;;;;;;;239.37;93.23;;;;;;;;;;5054756;28;20416;-47
2023/09/11 04:06:55;;;;;;;244.10;101.73;;;;;;;;;;5054439;28;20405;-46
2023/09/11 04:09:21;;;;;;;240.50;93.87;;;;;;;;;;5054343;28;20978;-45
2023/09/11 04:11:47;;;;;;;240.87;97.23;;;;;;;;;;5052853;28;20824;-47
2023/09/11 04:14:13;;;;;;;246.37;107.13;;;;;;;;;;5054335;28;20409;-46
2023/09/11 04:16:39;;;;;;;240.00;97.47;;;;;;;;;;5049507;28;20890;-45
2023/09/11 04:19:05;;;;;;;239.73;95.97;;;;;;;;;;5054102;28;20853;-45
2023/09/11 04:21:31;;;;;;;243.07;99.40;;;;;;;;;;5054080;28;20852;-45
2023/09/11 04:23:57;;;;;;;242.77;99.37;;;;;;;;;;5052623;28;20421;-46
2023/09/11 04:26:23;;;;;;;244.93;103.97;;;;;;;;;;5053961;28;20492;-46
2023/09/11 04:28:49;;;;;;;244.57;101.80;;;;;;;;;;5053727;28;20435;-46
2023/09/11 04:31:15;;;;;;;242.67;101.57;;;;;;;;;;5054048;28;20405;-46
2023/09/11 04:33:41;;;;;;;242.10;96.37;;;;;;;;;;5053975;28;20405;-46
2023/09/11 04:36:07;;;;;;;244.07;100.00;;;;;;;;;;5053985;28;20428;-45
2023/09/11 04:38:33;;;;;;;242.63;95.10;;;;;;;;;;5052196;28;20425;-45
2023/09/11 04:40:59;;;;;;;246.87;102.60;;;;;;;;;;5054294;28;20901;-46
2023/09/11 04:43:25;;;;;;;240.00;95.57;;;;;;;;;;5053702;28;20964;-47
2023/09/11 04:45:51;;;;;;;245.00;102.93;;;;;;;;;;5053635;28;20414;-47
2023/09/11 04:48:17;;;;;;;241.47;96.13;;;;;;;;;;5053600;28;20457;-47
2023/09/11 04:50:43;;;;;;;243.97;99.40;;;;;;;;;;5053527;28;20529;-46
2023/09/11 04:53:09;;;;;;;242.23;95.53;;;;;;;;;;5053569;28;20862;-46
2023/09/11 04:55:35;;;;;;;244.30;97.73;;;;;;;;;;5052675;28;20832;-46
2023/09/11 04:58:01;;;;;;;241.23;96.00;;;;;;;;;;5050839;28;20440;-47
2023/09/11 05:00:27;;;;;;;243.53;98.77;;;;;;;;;;5053556;28;20878;-46
2023/09/11 05:02:53;;;;;;;245.63;100.43;;;;;;;;;;5053435;28;20483;-46
2023/09/11 05:05:19;;;;;;;243.70;97.57;;;;;;;;;;5053325;28;20416;-47
2023/09/11 05:07:45;;;;;;;239.47;92.53;;;;;;;;;;5052970;28;20430;-46
2023/09/11 05:10:14;;;;;;;239.97;93.07;;;;;;;;;;5053261;28;20405;-46
2023/09/11 05:12:40;;;;;;;245.53;101.17;;;;;;;;;;5053260;28;20450;-46
2023/09/11 05:15:06;;;;;;;242.67;96.73;;;;;;;;;;5049323;28;20775;-46
2023/09/11 05:17:32;;;;;;;241.40;95.33;;;;;;;;;;5052879;28;20450;-46
2023/09/11 05:19:58;;;;;;;245.63;102.03;;;;;;;;;;5053068;28;20405;-46
2023/09/11 05:22:24;;;;;;;244.37;101.17;;;;;;;;;;5053208;28;20946;-45
2023/09/11 05:24:53;;;;;;;240.67;96.97;;;;;;;;;;5052144;28;20427;-46
2023/09/11 05:27:21;;;;;;;244.33;98.77;;;;;;;;;;5052771;28;20416;-46
2023/09/11 05:29:47;;;;;;;241.00;97.90;;;;;;;;;;5052896;28;20914;-46
2023/09/11 05:32:13;;;;;;;244.93;103.13;;;;;;;;;;5052829;28;20413;-46
2023/09/11 05:34:39;;;;;;;246.37;104.27;;;;;;;;;;5052616;28;20462;-47
2023/09/11 05:37:05;;;;;;;240.80;96.77;;;;;;;;;;5051849;28;20927;-47
2023/09/11 05:39:32;;;;;;;246.20;105.40;;;;;;;;;;5052596;28;20402;-46
2023/09/11 05:41:58;;;;;;;245.37;105.50;;;;;;;;;;5052618;28;20539;-46
2023/09/11 05:44:24;;;;;;;242.07;100.60;;;;;;;;;;5052612;28;20492;-46
2023/09/11 05:46:50;;;;;;;241.80;99.47;;;;;;;;;;5052510;28;20422;-45
2023/09/11 05:49:16;;;;;;;244.33;104.13;;;;;;;;;;5052390;28;20433;-46
2023/09/11 05:51:42;;;;;;;247.50;107.20;;;;;;;;;;5051823;28;20791;-46
2023/09/11 05:54:08;;;;;;;243.23;101.63;;;;;;;;;;5052375;28;20417;-47
2023/09/11 05:56:34;;;;;;;240.57;98.90;;;;;;;;;;5052333;28;20416;-46
2023/09/11 05:59:00;;;;;;;243.63;100.93;;;;;;;;;;5051990;28;20476;-46
2023/09/11 06:01:27;;;;;;;243.67;99.83;;;;;;;;;;5052473;28;20775;-46
2023/09/11 06:03:53;;;;;;;245.73;104.43;;;;;;;;;;5052204;28;20955;-46
2023/09/11 06:06:19;;;;;;;246.40;106.93;;;;;;;;;;5051641;28;20485;-45
2023/09/11 06:08:45;;;;;;;245.87;106.87;;;;;;;;;;5052004;28;20437;-46
2023/09/11 06:11:10;;;;;;;240.57;95.47;;;;;;;;;;5052137;28;20463;-46
2023/09/11 06:13:37;;;;;;;244.03;102.07;;;;;;;;;;5051976;28;20410;-46
2023/09/11 06:16:03;;;;;;;242.70;98.43;;;;;;;;;;5041525;28;20397;-46
2023/09/11 06:18:29;;;;;;;244.97;103.90;;;;;;;;;;5047123;28;20429;-46
2023/09/11 06:20:55;;;;;;;244.03;102.77;;;;;;;;;;5051329;28;20406;-46
2023/09/11 06:23:21;;;;;;;242.47;98.57;;;;;;;;;;5051453;28;20845;-47
2023/09/11 06:25:46;;;;;;;244.93;103.60;;;;;;;;;;5052003;28;20413;-46
2023/09/11 06:28:13;;;;;;;244.80;102.33;;;;;;;;;;5051812;28;20433;-46
2023/09/11 06:30:39;;;;;;;246.13;105.73;;;;;;;;;;5051724;28;20413;-47
2023/09/11 06:33:05;;;;;;;244.20;101.87;;;;;;;;;;5051199;28;20409;-46
2023/09/11 06:35:31;;;;;;;242.03;98.03;;;;;;;;;;5050137;28;20401;-46
2023/09/11 06:37:56;;;;;;;244.20;100.80;;;;;;;;;;5050075;28;20917;-46
2023/09/11 06:40:23;;;;;;;243.37;101.57;;;;;;;;;;5051412;28;20428;-46
2023/09/11 06:42:49;;;;;;;246.63;102.87;;;;;;;;;;5051595;28;20474;-46
2023/09/11 06:45:15;;;;;;;245.47;104.63;;;;;;;;;;5051759;28;20496;-46
2023/09/11 06:47:42;;;;;;;244.63;103.33;;;;;;;;;;5050924;28;20433;-48
2023/09/11 06:50:08;;;;;;;260.87;120.93;;;;;;;;;;5044625;28;20433;-46
2023/09/11 06:52:38;;;;;;;245.27;105.70;;;;;;;;;;5041308;28;20445;-46
2023/09/11 06:55:05;;;;;;;245.47;105.57;;;;;;;;;;5043970;28;20417;-47
2023/09/11 06:57:31;;;;;;;249.30;116.17;;;;;;;;;;5048264;28;20924;-47
2023/09/11 06:59:57;;;;;;;245.30;109.60;;;;;;;;;;5049578;28;20445;-46
2023/09/11 07:02:22;;;;;;;248.17;113.20;;;;;;;;;;5051461;28;20543;-46
2023/09/11 07:04:49;;;;;;;248.00;112.03;;;;;;;;;;5051539;28;20404;-46
2023/09/11 07:07:15;;;;;;;256.80;120.43;;;;;;;;;;5050201;28;20937;-47
2023/09/11 07:09:41;;;;;;;247.23;111.17;;;;;;;;;;5051405;28;20417;-46
2023/09/11 07:12:07;;;;;;;246.07;111.10;;;;;;;;;;5051284;28;20439;-46
2023/09/11 07:14:33;;;;;;;248.57;113.90;;;;;;;;;;5051329;28;20889;-47
2023/09/11 07:17:02;;;;;;;249.83;119.93;;;;;;;;;;5051122;28;20513;-46
2023/09/11 07:19:28;;;;;;;249.30;119.03;;;;;;;;;;5051333;28;20440;-47
2023/09/11 07:21:54;;;;;;;250.13;117.07;;;;;;;;;;5051142;28;20475;-47
2023/09/11 07:24:20;;;;;;;249.10;118.77;;;;;;;;;;5051307;28;20799;-46
2023/09/11 07:26:45;;;;;;;249.67;120.27;;;;;;;;;;5051060;28;20450;-47
2023/09/11 07:29:11;;;;;;;249.83;122.10;;;;;;;;;;5050901;28;20425;-47
2023/09/11 07:31:37;;;;;;;248.67;126.30;;;;;;;;;;5051038;28;20444;-47
2023/09/11 07:34:03;;;;;;;249.70;125.10;;;;;;;;;;5051804;28;20444;-48
2023/09/11 07:36:29;;;;;;;249.53;127.03;;;;;;;;;;5054923;28;20417;-47
2023/09/11 07:38:56;;;;;;;250.87;128.70;;;;;;;;;;5054585;28;20428;-47
2023/09/11 07:41:23;;;;;;;248.80;127.30;;;;;;;;;;5055433;28;20934;-47
2023/09/11 07:43:50;;;;;;;250.20;128.53;;;;;;;;;;5054666;28;20855;-48
2023/09/11 07:46:25;;;;;;;249.57;132.20;;;;;;;;;;5054776;28;20413;-47
2023/09/11 07:48:51;;;;;;;247.60;127.23;;;;;;;;;;5049541;28;20520;-47
2023/09/11 07:51:17;;;;;;;247.40;130.30;;;;;;;;;;5054656;28;20583;-47
2023/09/11 07:53:44;;;;;;;250.17;130.80;;;;;;;;;;5054712;28;20451;-46
2023/09/11 07:56:10;;;;;;;249.30;130.97;;;;;;;;;;5054516;28;20495;-46
2023/09/11 07:58:36;;;;;;;247.63;132.27;;;;;;;;;;5054291;28;20433;-46
2023/09/11 08:01:03;;;;;;;251.00;136.13;;;;;;;;;;5054711;28;20405;-46
2023/09/11 08:03:29;;;;;;;251.13;136.97;;;;;;;;;;5054468;28;20876;-47
2023/09/11 08:05:55;;;;;;;251.87;139.97;;;;;;;;;;5054475;28;20401;-47
2023/09/11 08:08:21;;;;;;;251.27;142.87;;;;;;;;;;5053206;28;20421;-47
2023/09/11 08:10:47;;;;;;;250.50;137.73;;;;;;;;;;5052558;28;20459;-47
2023/09/11 08:13:13;;;;;;;247.10;133.17;;;;;;;;;;5054236;28;20420;-46
2023/09/11 08:15:39;;;;;;;244.20;133.30;;;;;;;;;;5054082;28;20417;-47
2023/09/11 08:18:05;;;;;;;247.50;139.83;;;;;;;;;;5053811;28;20515;-47
2023/09/11 08:20:31;;;;;;;243.27;133.77;;;;;;;;;;5054279;28;20409;-47
2023/09/11 08:22:58;;;;;;;246.57;139.70;;;;;;;;;;5054017;28;20483;-47
2023/09/11 08:25:24;;;;;;;245.87;139.23;;;;;;;;;;5052294;28;20441;-47
2023/09/11 08:27:50;;;;;;;250.63;147.30;;;;;;;;;;5053005;28;20468;-48
2023/09/11 08:30:16;;;;;;;246.83;141.93;;;;;;;;;;5053473;28;20493;-47
2023/09/11 08:32:42;;;;;;;245.47;140.80;;;;;;;;;;5053937;28;20397;-47
2023/09/11 08:35:08;;;;;;;244.43;139.03;;;;;;;;;;5053645;28;20584;-48
2023/09/11 08:37:34;;;;;;;247.10;144.93;;;;;;;;;;5053565;28;20526;-46
2023/09/11 08:40:00;;;;;;;247.17;144.60;;;;;;;;;;5053400;28;20440;-46
2023/09/11 08:42:26;;;;;;;246.47;144.63;;;;;;;;;;5053716;28;20990;-46
2023/09/11 08:44:52;;;;;;;246.57;146.23;;;;;;;;;;5053422;28;20417;-46
2023/09/11 08:47:20;;;;;;;248.40;150.07;;;;;;;;;;5053915;28;20402;-46
2023/09/11 08:49:51;;;;;;;245.77;147.07;;;;;;;;;;5050189;28;20454;-47
2023/09/11 08:52:18;;;;;;;244.93;148.67;;;;;;;;;;5053422;28;20784;-47
2023/09/11 08:54:45;;;;;;;249.43;153.83;;;;;;;;;;5051203;28;20957;-47
2023/09/11 08:57:12;;;;;;;254.10;158.87;;;;;;;;;;5053058;28;20965;-48
2023/09/11 08:59:40;;;;;;;246.87;153.33;;;;;;;;;;5053282;28;20425;-47
2023/09/11 09:02:07;;;;;;;246.97;155.50;;;;;;;;;;5053556;28;20461;-47
2023/09/11 09:04:34;;;;;;;246.53;157.27;;;;;;;;;;5053325;28;20455;-47
2023/09/11 09:07:01;;;;;;;246.17;155.80;;;;;;;;;;5053148;28;20452;-47
2023/09/11 09:09:27;;;;;;;245.77;155.27;;;;;;;;;;5052766;28;20921;-46
2023/09/11 09:11:53;;;;;;;245.73;156.17;;;;;;;;;;5033607;28;20901;-47
2023/09/11 09:14:19;;;;;;;243.23;152.57;;;;;;;;;;5050722;28;20448;-46
2023/09/11 09:16:46;;;;;;;247.67;159.37;;;;;;;;;;5067568;28;20895;-47
2023/09/11 09:19:12;;;;;;;245.83;158.57;;;;;;;;;;5049763;28;20485;-47
2023/09/11 09:21:58;;;;;;;245.13;157.57;;;;;;;;;;5033027;28;20434;-47
2023/09/11 09:24:24;;;;;;;245.57;160.10;;;;;;;;;;5041152;28;20424;-47
2023/09/11 09:26:59;;;;;;;246.83;160.10;;;;;;;;;;5052895;28;20884;-47
2023/09/11 09:29:25;;;;;;;244.90;159.53;;;;;;;;;;5049218;28;20516;-48
2023/09/11 09:31:52;;;;;;;246.57;159.47;;;;;;;;;;5051245;28;20433;-46
2023/09/11 09:34:18;;;;;;;245.83;158.30;;;;;;;;;;5052667;28;20414;-47
2023/09/11 09:36:53;;;;;;;246.67;162.63;;;;;;;;;;5052376;28;20449;-46
2023/09/11 09:39:20;;;;;;;244.63;158.07;;;;;;;;;;5052476;28;20508;-47
2023/09/11 09:41:58;;;;;;;247.63;161.13;;;;;;;;;;5056013;28;20449;-47
2023/09/11 09:44:28;;;;;;;247.40;162.93;;;;;;;;;;5052569;28;20416;-47
2023/09/11 09:46:54;;;;;;;247.77;162.53;;;;;;;;;;5052385;28;20409;-48
2023/09/11 09:49:21;;;;;;;244.90;161.47;;;;;;;;;;5052226;28;20433;-47
2023/09/11 09:51:47;;;;;;;245.97;163.10;;;;;;;;;;5052296;28;20440;-47
2023/09/11 09:54:13;;;;;;;243.87;154.03;;;;;;;;;;5052450;28;20398;-47
2023/09/11 09:56:40;;;;;;;267.63;182.97;;;;;;;;;;5050586;28;20480;-47
2023/09/11 09:59:06;;;;;;;246.77;167.40;;;;;;;;;;5051976;28;20929;-47
2023/09/11 10:01:43;;;;;;;246.30;164.73;;;;;;;;;;5037913;28;20414;-47
2023/09/11 10:04:17;;;;;;;247.20;166.77;;;;;;;;;;5045049;28;20412;-47
2023/09/11 10:06:52;;;;;;;247.47;165.93;;;;;;;;;;5052165;28;20413;-47
2023/09/11 10:09:21;;;;;;;246.60;166.63;;;;;;;;;;5052407;28;20437;-47
2023/09/11 10:11:47;;;;;;;250.00;168.27;;;;;;;;;;5057028;28;20412;-47
2023/09/11 10:14:13;;;;;;;249.77;169.50;;;;;;;;;;5047158;28;20446;-47
2023/09/11 10:16:40;;;;;;;250.60;169.13;;;;;;;;;;5046780;28;20522;-47
2023/09/11 10:19:06;;;;;;;247.33;168.23;;;;;;;;;;5051796;28;20433;-47
2023/09/11 10:21:33;;;;;;;250.33;173.20;;;;;;;;;;5049158;28;20767;-47
2023/09/11 10:23:59;;;;;;;249.67;170.90;;;;;;;;;;5051797;28;20402;-46
2023/09/11 10:26:32;;;;;;;251.07;172.87;;;;;;;;;;5051758;28;20483;-47
2023/09/11 10:29:02;;;;;;;247.77;172.53;;;;;;;;;;5051742;28;20963;-46
2023/09/11 10:31:31;;;;;;;248.13;169.63;;;;;;;;;;5051887;28;20408;-47
2023/09/11 10:33:57;;;;;;;245.77;169.27;;;;;;;;;;5050070;28;20414;-47
2023/09/11 10:36:26;;;;;;;248.20;168.97;;;;;;;;;;5051663;28;20489;-47
2023/09/11 10:38:55;;;;;;;247.30;167.60;;;;;;;;;;5051354;28;20783;-47
2023/09/11 10:41:21;;;;;;;248.07;172.50;;;;;;;;;;5047940;28;20409;-44
2023/09/11 10:43:47;;;;;;;248.77;174.97;;;;;;;;;;5051580;28;20830;-44
2023/09/11 10:46:16;;;;;;;246.53;170.87;;;;;;;;;;5051694;28;20413;-43
2023/09/11 10:48:42;;;;;;;246.13;167.63;;;;;;;;;;5049702;28;20433;-45
2023/09/11 10:51:08;;;;;;;246.63;169.60;;;;;;;;;;5051600;28;20535;-44
2023/09/11 10:53:34;;;;;;;247.87;171.70;;;;;;;;;;5051523;28;20428;-44
2023/09/11 10:56:04;;;;;;;249.47;174.27;;;;;;;;;;5051366;28;20410;-44
2023/09/11 10:58:30;;;;;;;246.87;169.23;;;;;;;;;;5051343;28;20425;-44
2023/09/11 11:00:57;;;;;;;247.43;173.80;;;;;;;;;;5051397;28;20421;-44
2023/09/11 11:03:26;;;;;;;246.93;169.20;;;;;;;;;;5049952;28;20469;-44
2023/09/11 11:05:52;;;;;;;248.87;174.73;;;;;;;;;;5051276;28;20788;-45
2023/09/11 11:08:19;;;;;;;246.50;174.67;;;;;;;;;;5047764;28;21024;-45
2023/09/11 11:10:50;;;;;;;246.00;170.27;;;;;;;;;;5055461;28;20409;-44
2023/09/11 11:13:16;;;;;;;245.50;170.67;;;;;;;;;;5055586;28;20754;-44
2023/09/11 11:15:42;;;;;;;246.43;170.63;;;;;;;;;;5055350;28;20892;-44
2023/09/11 11:18:24;;;;;;;246.50;168.87;;;;;;;;;;5054890;28;20515;-46
2023/09/11 11:21:00;;;;;;;245.90;168.27;;;;;;;;;;5053931;28;20421;-45
2023/09/11 11:23:36;;;;;;;244.57;167.37;;;;;;;;;;5055300;28;20506;-46
2023/09/11 11:26:05;;;;;;;244.83;169.80;;;;;;;;;;5055292;28;20420;-45
2023/09/11 11:28:40;;;;;;;246.00;171.77;;;;;;;;;;5054941;28;20511;-45
2023/09/11 11:31:08;;;;;;;246.57;175.17;;;;;;;;;;5048790;28;20409;-44
2023/09/11 11:33:35;;;;;;;247.60;173.17;;;;;;;;;;5055171;28;20405;-44
2023/09/11 11:36:02;;;;;;;247.57;174.23;;;;;;;;;;5054882;28;20925;-44
2023/09/11 11:38:28;;;;;;;245.53;169.97;;;;;;;;;;5059725;28;20428;-44
2023/09/11 11:40:55;;;;;;;250.50;175.93;;;;;;;;;;5055236;28;20848;-45
2023/09/11 11:43:22;;;;;;;248.10;174.07;;;;;;;;;;5053569;28;20540;-44
2023/09/11 11:45:48;;;;;;;250.40;174.10;;;;;;;;;;5051715;28;20730;-44
2023/09/11 11:48:14;;;;;;;249.47;176.77;;;;;;;;;;5053903;28;20769;-45
2023/09/11 11:50:44;;;;;;;251.90;181.13;;;;;;;;;;5053563;28;20830;-46
2023/09/11 11:53:38;;;;;;;245.03;170.07;;;;;;;;;;5054757;28;20471;-45
2023/09/11 11:56:04;;;;;;;248.23;179.60;;;;;;;;;;5045722;28;20409;-44
2023/09/11 11:58:30;;;;;;;247.43;178.40;;;;;;;;;;5053153;28;20436;-44
2023/09/11 12:01:01;;;;;;;250.83;192.17;;;;;;;;;;5054580;28;20433;-45
2023/09/11 12:03:28;;;;;;;245.27;168.27;;;;;;;;;;5054398;28;20469;-44
2023/09/11 12:05:54;;;;;;;244.83;175.50;;;;;;;;;;5054332;28;20407;-45
2023/09/11 12:08:20;;;;;;;247.37;176.33;;;;;;;;;;5048348;28;20417;-45
2023/09/11 12:10:48;;;;;;;243.63;167.50;;;;;;;;;;5054347;28;20417;-45
2023/09/11 12:13:15;;;;;;;245.33;173.93;;;;;;;;;;5053143;28;20920;-44
2023/09/11 12:15:41;;;;;;;244.67;173.43;;;;;;;;;;5051364;28;20455;-45
2023/09/11 12:18:07;;;;;;;243.63;173.00;;;;;;;;;;5053945;28;20429;-45
2023/09/11 12:20:33;;;;;;;246.37;177.47;;;;;;;;;;5054015;28;20417;-45
2023/09/11 12:23:02;;;;;;;248.00;178.73;;;;;;;;;;5056963;28;20994;-44
2023/09/11 12:25:28;;;;;;;245.50;175.97;;;;;;;;;;5058951;28;20437;-46
2023/09/11 12:27:55;;;;;;;246.90;180.17;;;;;;;;;;5052806;28;20425;-45
2023/09/11 12:30:21;;;;;;;247.13;182.60;;;;;;;;;;5054066;28;20766;-45
2023/09/11 12:32:47;;;;;;;247.80;180.27;;;;;;;;;;5054030;28;20727;-45
2023/09/11 12:35:13;;;;;;;250.23;187.03;;;;;;;;;;5053956;28;20492;-44
2023/09/11 12:37:42;;;;;;;247.77;179.60;;;;;;;;;;5053421;28;20460;-45
2023/09/11 12:40:11;;;;;;;245.73;176.53;;;;;;;;;;5052978;28;20420;-44
2023/09/11 12:42:38;;;;;;;247.70;180.30;;;;;;;;;;5052792;28;20548;-44
2023/09/11 12:45:04;;;;;;;245.33;177.50;;;;;;;;;;5054015;28;20404;-45
2023/09/11 12:47:31;;;;;;;247.27;182.90;;;;;;;;;;5053501;28;20433;-44
2023/09/11 12:49:57;;;;;;;244.87;176.37;;;;;;;;;;5053784;28;20421;-45
2023/09/11 12:52:23;;;;;;;245.47;178.10;;;;;;;;;;5053408;28;20494;-45
2023/09/11 12:54:49;;;;;;;251.67;189.63;;;;;;;;;;5064485;28;20423;-44
2023/09/11 12:57:18;;;;;;;255.10;192.20;;;;;;;;;;5057535;28;20422;-44
2023/09/11 12:59:44;;;;;;;245.30;175.40;;;;;;;;;;5033581;28;20898;-44
2023/09/11 13:02:11;;;;;;;257.33;191.50;;;;;;;;;;5033079;28;20454;-44
2023/09/11 13:04:37;;;;;;;252.30;190.00;;;;;;;;;;5043994;28;20410;-45
2023/09/11 13:07:03;;;;;;;256.53;198.20;;;;;;;;;;5033504;28;20452;-44
2023/09/11 13:09:33;;;;;;;247.37;182.77;;;;;;;;;;5066238;28;20432;-45
2023/09/11 13:11:59;;;;;;;245.03;178.43;;;;;;;;;;5045596;28;20422;-44
2023/09/11 13:14:25;;;;;;;245.43;178.73;;;;;;;;;;5042926;28;20491;-44
2023/09/11 13:16:51;;;;;;;245.87;177.17;;;;;;;;;;5053195;28;20579;-44
2023/09/11 13:19:17;;;;;;;246.93;179.47;;;;;;;;;;5052763;28;20804;-45
2023/09/11 13:21:43;;;;;;;247.17;183.23;;;;;;;;;;5054982;28;20413;-44
2023/09/11 13:24:09;;;;;;;245.77;178.50;;;;;;;;;;5073304;28;20405;-44
2023/09/11 13:26:35;;;;;;;247.33;180.87;;;;;;;;;;5035934;28;20421;-44
2023/09/11 13:29:01;;;;;;;247.93;182.07;;;;;;;;;;5032816;28;20441;-43
2023/09/11 13:31:27;;;;;;;246.90;181.23;;;;;;;;;;5044704;28;20422;-44
2023/09/11 13:33:54;;;;;;;247.50;183.00;;;;;;;;;;5052537;28;20452;-44
2023/09/11 13:36:20;;;;;;;247.03;178.00;;;;;;;;;;5059473;28;20424;-44
2023/09/11 13:38:46;;;;;;;247.33;178.40;;;;;;;;;;5065178;28;21068;-45
2023/09/11 13:41:12;;;;;;;247.67;179.27;;;;;;;;;;5032925;28;20422;-44
2023/09/11 13:43:37;;;;;;;248.60;178.43;;;;;;;;;;5032620;28;20552;-43
2023/09/11 13:46:03;;;;;;;247.10;174.27;;;;;;;;;;5050309;28;20416;-44
2023/09/11 13:48:29;;;;;;;249.37;179.77;;;;;;;;;;5052171;28;20425;-44
2023/09/11 13:50:55;;;;;;;248.67;174.10;;;;;;;;;;5064099;28;20431;-44
2023/09/11 13:53:21;;;;;;;249.77;173.03;;;;;;;;;;5055807;28;20414;-44
2023/09/11 13:55:47;;;;;;;248.03;168.40;;;;;;;;;;5032408;28;20415;-43